sensor_id;sensor_type;location;lat;lon;timestamp;P1;durP1;ratioP1;P2;durP2;ratioP2
14165;SDS011;7162;52.422;13.754;2023-02-15T00:02:02;26.33;;;10.43;;
14165;SDS011;7162;52.422;13.754;2023-02-15T00:04:29;24.30;;;10.70;;
14165;SDS011;7162;52.422;13.754;2023-02-15T00:07:10;29.07;;;9.80;;
14165;SDS011;7162;52.422;13.754;2023-02-15T00:09:37;22.20;;;10.20;;
14165;SDS011;7162;52.422;13.754;2023-02-15T00:12:06;24.53;;;9.30;;
14165;SDS011;7162;52.422;13.754;2023-02-15T00:14:34;19.37;;;9.03;;
14165;SDS011;7162;52.422;13.754;2023-02-15T00:17:01;26.97;;;10.37;;
14165;SDS011;7162;52.422;13.754;2023-02-15T00:19:28;29.27;;;11.17;;
14165;SDS011;7162;52.422;13.754;2023-02-15T00:21:55;23.00;;;9.53;;
14165;SDS011;7162;52.422;13.754;2023-02-15T00:24:23;23.97;;;9.87;;
14165;SDS011;7162;52.422;13.754;2023-02-15T00:26:50;22.10;;;8.93;;
14165;SDS011;7162;52.422;13.754;2023-02-15T00:29:17;25.30;;;10.20;;
14165;SDS011;7162;52.422;13.754;2023-02-15T00:31:46;25.43;;;9.53;;
14165;SDS011;7162;52.422;13.754;2023-02-15T00:34:13;20.73;;;9.50;;
14165;SDS011;7162;52.422;13.754;2023-02-15T00:36:41;24.80;;;9.37;;
14165;SDS011;7162;52.422;13.754;2023-02-15T00:39:08;28.00;;;9.87;;
14165;SDS011;7162;52.422;13.754;2023-02-15T00:41:35;23.07;;;9.87;;
14165;SDS011;7162;52.422;13.754;2023-02-15T00:44:02;24.20;;;8.70;;
14165;SDS011;7162;52.422;13.754;2023-02-15T00:46:32;21.10;;;8.73;;
14165;SDS011;7162;52.422;13.754;2023-02-15T00:49:01;25.33;;;8.80;;
14165;SDS011;7162;52.422;13.754;2023-02-15T00:51:28;19.40;;;8.30;;
14165;SDS011;7162;52.422;13.754;2023-02-15T00:53:55;24.57;;;9.60;;
14165;SDS011;7162;52.422;13.754;2023-02-15T00:56:22;26.43;;;9.13;;
14165;SDS011;7162;52.422;13.754;2023-02-15T00:58:49;23.70;;;9.87;;
14165;SDS011;7162;52.422;13.754;2023-02-15T01:01:17;24.40;;;8.63;;
14165;SDS011;7162;52.422;13.754;2023-02-15T01:03:44;24.13;;;9.17;;
14165;SDS011;7162;52.422;13.754;2023-02-15T01:06:13;19.00;;;9.00;;
14165;SDS011;7162;52.422;13.754;2023-02-15T01:08:40;22.20;;;9.30;;
14165;SDS011;7162;52.422;13.754;2023-02-15T01:11:08;20.53;;;8.00;;
14165;SDS011;7162;52.422;13.754;2023-02-15T01:13:35;20.10;;;8.00;;
14165;SDS011;7162;52.422;13.754;2023-02-15T01:16:03;22.23;;;8.63;;
14165;SDS011;7162;52.422;13.754;2023-02-15T01:18:30;22.73;;;8.87;;
14165;SDS011;7162;52.422;13.754;2023-02-15T01:20:57;24.70;;;9.77;;
14165;SDS011;7162;52.422;13.754;2023-02-15T01:23:26;20.47;;;8.10;;
14165;SDS011;7162;52.422;13.754;2023-02-15T01:25:53;23.33;;;9.43;;
14165;SDS011;7162;52.422;13.754;2023-02-15T01:28:20;25.50;;;9.20;;
14165;SDS011;7162;52.422;13.754;2023-02-15T01:30:47;29.20;;;10.10;;
14165;SDS011;7162;52.422;13.754;2023-02-15T01:33:14;25.37;;;9.90;;
14165;SDS011;7162;52.422;13.754;2023-02-15T01:35:43;25.23;;;9.40;;
14165;SDS011;7162;52.422;13.754;2023-02-15T01:38:11;19.57;;;8.30;;
14165;SDS011;7162;52.422;13.754;2023-02-15T01:40:40;22.07;;;8.80;;
14165;SDS011;7162;52.422;13.754;2023-02-15T01:43:08;23.03;;;8.73;;
14165;SDS011;7162;52.422;13.754;2023-02-15T01:45:35;23.40;;;8.70;;
14165;SDS011;7162;52.422;13.754;2023-02-15T01:48:03;23.70;;;9.00;;
14165;SDS011;7162;52.422;13.754;2023-02-15T01:50:32;15.97;;;6.47;;
14165;SDS011;7162;52.422;13.754;2023-02-15T01:53:01;22.10;;;8.93;;
14165;SDS011;7162;52.422;13.754;2023-02-15T01:55:31;22.63;;;8.20;;
14165;SDS011;7162;52.422;13.754;2023-02-15T01:58:01;17.47;;;7.90;;
14165;SDS011;7162;52.422;13.754;2023-02-15T02:00:28;20.23;;;8.40;;
14165;SDS011;7162;52.422;13.754;2023-02-15T02:02:55;22.03;;;8.00;;
14165;SDS011;7162;52.422;13.754;2023-02-15T02:05:23;26.30;;;7.87;;
14165;SDS011;7162;52.422;13.754;2023-02-15T02:07:51;20.40;;;7.30;;
14165;SDS011;7162;52.422;13.754;2023-02-15T02:10:20;20.37;;;7.93;;
14165;SDS011;7162;52.422;13.754;2023-02-15T02:12:48;17.43;;;8.23;;
14165;SDS011;7162;52.422;13.754;2023-02-15T02:15:17;22.97;;;9.03;;
14165;SDS011;7162;52.422;13.754;2023-02-15T02:17:49;25.17;;;9.70;;
14165;SDS011;7162;52.422;13.754;2023-02-15T02:20:25;18.10;;;8.10;;
14165;SDS011;7162;52.422;13.754;2023-02-15T02:23:07;21.10;;;8.17;;
14165;SDS011;7162;52.422;13.754;2023-02-15T02:25:42;17.23;;;8.00;;
14165;SDS011;7162;52.422;13.754;2023-02-15T02:28:20;19.30;;;9.13;;
14165;SDS011;7162;52.422;13.754;2023-02-15T02:31:05;21.87;;;8.20;;
14165;SDS011;7162;52.422;13.754;2023-02-15T02:33:42;18.00;;;7.83;;
14165;SDS011;7162;52.422;13.754;2023-02-15T02:36:14;19.97;;;8.50;;
14165;SDS011;7162;52.422;13.754;2023-02-15T02:38:45;21.93;;;8.73;;
14165;SDS011;7162;52.422;13.754;2023-02-15T02:41:16;29.97;;;9.80;;
14165;SDS011;7162;52.422;13.754;2023-02-15T02:43:48;17.80;;;7.90;;
14165;SDS011;7162;52.422;13.754;2023-02-15T02:46:16;25.13;;;9.97;;
14165;SDS011;7162;52.422;13.754;2023-02-15T02:48:45;22.20;;;8.30;;
14165;SDS011;7162;52.422;13.754;2023-02-15T02:51:12;23.47;;;9.67;;
14165;SDS011;7162;52.422;13.754;2023-02-15T02:53:45;21.67;;;9.43;;
14165;SDS011;7162;52.422;13.754;2023-02-15T02:56:14;19.50;;;9.20;;
14165;SDS011;7162;52.422;13.754;2023-02-15T02:58:44;21.37;;;7.80;;
14165;SDS011;7162;52.422;13.754;2023-02-15T03:01:12;20.90;;;8.70;;
14165;SDS011;7162;52.422;13.754;2023-02-15T03:03:41;25.13;;;8.67;;
14165;SDS011;7162;52.422;13.754;2023-02-15T03:06:11;23.80;;;8.93;;
14165;SDS011;7162;52.422;13.754;2023-02-15T03:08:43;19.07;;;8.80;;
14165;SDS011;7162;52.422;13.754;2023-02-15T03:11:13;16.30;;;6.87;;
14165;SDS011;7162;52.422;13.754;2023-02-15T03:13:40;16.30;;;7.90;;
14165;SDS011;7162;52.422;13.754;2023-02-15T03:16:08;20.50;;;8.00;;
14165;SDS011;7162;52.422;13.754;2023-02-15T03:18:55;23.90;;;8.40;;
14165;SDS011;7162;52.422;13.754;2023-02-15T03:21:26;23.43;;;7.50;;
14165;SDS011;7162;52.422;13.754;2023-02-15T03:23:55;23.07;;;8.47;;
14165;SDS011;7162;52.422;13.754;2023-02-15T03:26:22;31.00;;;10.00;;
14165;SDS011;7162;52.422;13.754;2023-02-15T03:28:52;23.17;;;9.87;;
14165;SDS011;7162;52.422;13.754;2023-02-15T03:31:20;23.43;;;9.33;;
14165;SDS011;7162;52.422;13.754;2023-02-15T03:33:49;24.33;;;8.47;;
14165;SDS011;7162;52.422;13.754;2023-02-15T03:36:18;17.63;;;8.30;;
14165;SDS011;7162;52.422;13.754;2023-02-15T03:38:49;20.10;;;8.10;;
14165;SDS011;7162;52.422;13.754;2023-02-15T03:41:17;24.03;;;9.13;;
14165;SDS011;7162;52.422;13.754;2023-02-15T03:43:47;24.67;;;8.70;;
14165;SDS011;7162;52.422;13.754;2023-02-15T03:46:17;20.47;;;8.07;;
14165;SDS011;7162;52.422;13.754;2023-02-15T03:48:47;19.47;;;8.53;;
14165;SDS011;7162;52.422;13.754;2023-02-15T03:51:18;25.47;;;9.40;;
14165;SDS011;7162;52.422;13.754;2023-02-15T03:54:08;15.80;;;7.90;;
14165;SDS011;7162;52.422;13.754;2023-02-15T03:56:36;18.80;;;8.23;;
14165;SDS011;7162;52.422;13.754;2023-02-15T03:59:03;24.80;;;8.30;;
14165;SDS011;7162;52.422;13.754;2023-02-15T04:01:51;21.57;;;9.10;;
14165;SDS011;7162;52.422;13.754;2023-02-15T04:04:23;19.87;;;8.63;;
14165;SDS011;7162;52.422;13.754;2023-02-15T04:06:51;22.23;;;9.10;;
14165;SDS011;7162;52.422;13.754;2023-02-15T04:09:19;23.30;;;9.20;;
14165;SDS011;7162;52.422;13.754;2023-02-15T04:12:04;21.97;;;7.60;;
14165;SDS011;7162;52.422;13.754;2023-02-15T04:14:32;21.17;;;7.40;;
14165;SDS011;7162;52.422;13.754;2023-02-15T04:17:16;26.93;;;9.23;;
14165;SDS011;7162;52.422;13.754;2023-02-15T04:19:43;28.43;;;9.40;;
14165;SDS011;7162;52.422;13.754;2023-02-15T04:22:28;20.60;;;9.40;;
14165;SDS011;7162;52.422;13.754;2023-02-15T04:25:14;24.97;;;7.43;;
14165;SDS011;7162;52.422;13.754;2023-02-15T04:27:42;22.40;;;9.00;;
14165;SDS011;7162;52.422;13.754;2023-02-15T04:30:09;17.37;;;8.40;;
14165;SDS011;7162;52.422;13.754;2023-02-15T04:32:37;16.03;;;7.33;;
14165;SDS011;7162;52.422;13.754;2023-02-15T04:35:04;20.23;;;8.43;;
14165;SDS011;7162;52.422;13.754;2023-02-15T04:37:32;22.23;;;8.97;;
14165;SDS011;7162;52.422;13.754;2023-02-15T04:39:59;22.87;;;8.60;;
14165;SDS011;7162;52.422;13.754;2023-02-15T04:42:27;25.60;;;8.77;;
14165;SDS011;7162;52.422;13.754;2023-02-15T04:44:54;22.73;;;9.10;;
14165;SDS011;7162;52.422;13.754;2023-02-15T04:47:21;25.43;;;9.23;;
14165;SDS011;7162;52.422;13.754;2023-02-15T04:49:48;22.83;;;9.20;;
14165;SDS011;7162;52.422;13.754;2023-02-15T04:52:15;24.70;;;9.73;;
14165;SDS011;7162;52.422;13.754;2023-02-15T04:54:43;29.90;;;9.37;;
14165;SDS011;7162;52.422;13.754;2023-02-15T04:57:10;31.90;;;9.57;;
14165;SDS011;7162;52.422;13.754;2023-02-15T04:59:38;24.63;;;10.10;;
14165;SDS011;7162;52.422;13.754;2023-02-15T05:02:05;27.90;;;9.80;;
14165;SDS011;7162;52.422;13.754;2023-02-15T05:04:32;23.03;;;9.20;;
14165;SDS011;7162;52.422;13.754;2023-02-15T05:06:59;20.60;;;8.60;;
14165;SDS011;7162;52.422;13.754;2023-02-15T05:09:26;23.60;;;9.10;;
14165;SDS011;7162;52.422;13.754;2023-02-15T05:11:53;18.40;;;8.80;;
14165;SDS011;7162;52.422;13.754;2023-02-15T05:14:20;21.57;;;9.70;;
14165;SDS011;7162;52.422;13.754;2023-02-15T05:16:49;21.90;;;9.17;;
14165;SDS011;7162;52.422;13.754;2023-02-15T05:19:16;26.70;;;9.40;;
14165;SDS011;7162;52.422;13.754;2023-02-15T05:21:43;27.10;;;9.03;;
14165;SDS011;7162;52.422;13.754;2023-02-15T05:24:10;25.83;;;10.07;;
14165;SDS011;7162;52.422;13.754;2023-02-15T05:26:55;23.20;;;9.70;;
14165;SDS011;7162;52.422;13.754;2023-02-15T05:29:39;19.10;;;8.00;;
14165;SDS011;7162;52.422;13.754;2023-02-15T05:32:07;30.33;;;10.00;;
14165;SDS011;7162;52.422;13.754;2023-02-15T05:34:35;20.10;;;8.57;;
14165;SDS011;7162;52.422;13.754;2023-02-15T05:37:02;21.83;;;9.47;;
14165;SDS011;7162;52.422;13.754;2023-02-15T05:39:29;23.97;;;10.00;;
14165;SDS011;7162;52.422;13.754;2023-02-15T05:41:58;21.40;;;8.53;;
14165;SDS011;7162;52.422;13.754;2023-02-15T05:44:25;29.67;;;9.40;;
14165;SDS011;7162;52.422;13.754;2023-02-15T05:46:52;22.63;;;9.30;;
14165;SDS011;7162;52.422;13.754;2023-02-15T05:49:20;25.77;;;9.77;;
14165;SDS011;7162;52.422;13.754;2023-02-15T05:51:47;28.70;;;10.17;;
14165;SDS011;7162;52.422;13.754;2023-02-15T05:54:14;18.90;;;9.07;;
14165;SDS011;7162;52.422;13.754;2023-02-15T05:56:41;20.70;;;9.30;;
14165;SDS011;7162;52.422;13.754;2023-02-15T05:59:08;21.40;;;8.77;;
14165;SDS011;7162;52.422;13.754;2023-02-15T06:01:35;20.73;;;8.70;;
14165;SDS011;7162;52.422;13.754;2023-02-15T06:04:02;22.27;;;10.20;;
14165;SDS011;7162;52.422;13.754;2023-02-15T06:06:30;25.80;;;10.43;;
14165;SDS011;7162;52.422;13.754;2023-02-15T06:08:59;30.43;;;10.80;;
14165;SDS011;7162;52.422;13.754;2023-02-15T06:11:26;25.83;;;9.87;;
14165;SDS011;7162;52.422;13.754;2023-02-15T06:13:53;32.70;;;11.57;;
14165;SDS011;7162;52.422;13.754;2023-02-15T06:16:20;29.20;;;10.10;;
14165;SDS011;7162;52.422;13.754;2023-02-15T06:18:47;25.17;;;10.20;;
14165;SDS011;7162;52.422;13.754;2023-02-15T06:21:14;24.73;;;9.80;;
14165;SDS011;7162;52.422;13.754;2023-02-15T06:23:42;28.40;;;10.20;;
14165;SDS011;7162;52.422;13.754;2023-02-15T06:26:09;25.30;;;9.80;;
14165;SDS011;7162;52.422;13.754;2023-02-15T06:28:38;32.57;;;10.30;;
14165;SDS011;7162;52.422;13.754;2023-02-15T06:31:06;26.50;;;10.27;;
14165;SDS011;7162;52.422;13.754;2023-02-15T06:33:33;29.63;;;9.93;;
14165;SDS011;7162;52.422;13.754;2023-02-15T06:36:00;24.17;;;9.43;;
14165;SDS011;7162;52.422;13.754;2023-02-15T06:38:28;26.37;;;10.17;;
14165;SDS011;7162;52.422;13.754;2023-02-15T06:40:57;28.67;;;11.17;;
14165;SDS011;7162;52.422;13.754;2023-02-15T06:43:23;28.83;;;11.20;;
14165;SDS011;7162;52.422;13.754;2023-02-15T06:45:51;29.40;;;11.90;;
14165;SDS011;7162;52.422;13.754;2023-02-15T06:48:17;26.13;;;10.43;;
14165;SDS011;7162;52.422;13.754;2023-02-15T06:50:44;25.53;;;9.53;;
14165;SDS011;7162;52.422;13.754;2023-02-15T06:53:11;38.73;;;10.50;;
14165;SDS011;7162;52.422;13.754;2023-02-15T06:55:38;31.10;;;9.43;;
14165;SDS011;7162;52.422;13.754;2023-02-15T06:58:07;33.87;;;12.50;;
14165;SDS011;7162;52.422;13.754;2023-02-15T07:00:34;25.87;;;9.23;;
14165;SDS011;7162;52.422;13.754;2023-02-15T07:03:01;25.13;;;9.13;;
14165;SDS011;7162;52.422;13.754;2023-02-15T07:05:28;22.23;;;8.10;;
14165;SDS011;7162;52.422;13.754;2023-02-15T07:07:55;26.00;;;9.10;;
14165;SDS011;7162;52.422;13.754;2023-02-15T07:10:22;25.77;;;9.87;;
14165;SDS011;7162;52.422;13.754;2023-02-15T07:12:50;20.37;;;8.17;;
14165;SDS011;7162;52.422;13.754;2023-02-15T07:15:18;24.50;;;9.50;;
14165;SDS011;7162;52.422;13.754;2023-02-15T07:17:46;22.73;;;9.00;;
14165;SDS011;7162;52.422;13.754;2023-02-15T07:20:14;24.67;;;9.60;;
14165;SDS011;7162;52.422;13.754;2023-02-15T07:22:42;19.47;;;7.90;;
14165;SDS011;7162;52.422;13.754;2023-02-15T07:25:09;20.77;;;8.70;;
14165;SDS011;7162;52.422;13.754;2023-02-15T07:27:41;24.17;;;9.67;;
14165;SDS011;7162;52.422;13.754;2023-02-15T07:30:09;25.87;;;10.50;;
14165;SDS011;7162;52.422;13.754;2023-02-15T07:32:38;29.20;;;10.10;;
14165;SDS011;7162;52.422;13.754;2023-02-15T07:35:25;27.53;;;8.93;;
14165;SDS011;7162;52.422;13.754;2023-02-15T07:37:52;28.33;;;9.63;;
14165;SDS011;7162;52.422;13.754;2023-02-15T07:40:19;25.07;;;9.97;;
14165;SDS011;7162;52.422;13.754;2023-02-15T07:42:48;23.50;;;8.70;;
14165;SDS011;7162;52.422;13.754;2023-02-15T07:45:16;22.83;;;8.77;;
14165;SDS011;7162;52.422;13.754;2023-02-15T07:47:44;22.87;;;8.80;;
14165;SDS011;7162;52.422;13.754;2023-02-15T07:50:12;27.47;;;9.30;;
14165;SDS011;7162;52.422;13.754;2023-02-15T07:52:39;25.00;;;9.60;;
14165;SDS011;7162;52.422;13.754;2023-02-15T07:55:06;25.00;;;9.60;;
14165;SDS011;7162;52.422;13.754;2023-02-15T07:57:47;43.27;;;9.97;;
14165;SDS011;7162;52.422;13.754;2023-02-15T08:00:14;24.10;;;9.60;;
14165;SDS011;7162;52.422;13.754;2023-02-15T08:02:41;30.60;;;8.77;;
14165;SDS011;7162;52.422;13.754;2023-02-15T08:05:09;28.33;;;9.73;;
14165;SDS011;7162;52.422;13.754;2023-02-15T08:07:36;25.60;;;9.60;;
14165;SDS011;7162;52.422;13.754;2023-02-15T08:10:06;27.60;;;9.20;;
14165;SDS011;7162;52.422;13.754;2023-02-15T08:12:33;29.97;;;9.70;;
14165;SDS011;7162;52.422;13.754;2023-02-15T08:15:00;30.40;;;10.00;;
14165;SDS011;7162;52.422;13.754;2023-02-15T08:17:27;25.73;;;9.87;;
14165;SDS011;7162;52.422;13.754;2023-02-15T08:19:54;28.60;;;11.20;;
14165;SDS011;7162;52.422;13.754;2023-02-15T08:22:22;32.20;;;11.57;;
14165;SDS011;7162;52.422;13.754;2023-02-15T08:24:51;26.37;;;9.57;;
14165;SDS011;7162;52.422;13.754;2023-02-15T08:27:18;32.40;;;11.00;;
14165;SDS011;7162;52.422;13.754;2023-02-15T08:29:51;32.43;;;10.00;;
14165;SDS011;7162;52.422;13.754;2023-02-15T08:32:18;22.63;;;8.50;;
14165;SDS011;7162;52.422;13.754;2023-02-15T08:34:45;31.63;;;9.97;;
14165;SDS011;7162;52.422;13.754;2023-02-15T08:37:12;22.47;;;10.10;;
14165;SDS011;7162;52.422;13.754;2023-02-15T08:39:41;31.73;;;10.37;;
14165;SDS011;7162;52.422;13.754;2023-02-15T08:42:08;28.00;;;10.20;;
14165;SDS011;7162;52.422;13.754;2023-02-15T08:44:35;31.47;;;10.03;;
14165;SDS011;7162;52.422;13.754;2023-02-15T08:47:02;26.80;;;10.33;;
14165;SDS011;7162;52.422;13.754;2023-02-15T08:49:29;30.73;;;10.70;;
14165;SDS011;7162;52.422;13.754;2023-02-15T08:52:08;28.60;;;10.93;;
14165;SDS011;7162;52.422;13.754;2023-02-15T08:54:35;33.53;;;11.33;;
14165;SDS011;7162;52.422;13.754;2023-02-15T08:57:04;30.97;;;10.33;;
14165;SDS011;7162;52.422;13.754;2023-02-15T08:59:31;25.77;;;9.63;;
14165;SDS011;7162;52.422;13.754;2023-02-15T09:01:58;27.73;;;8.73;;
14165;SDS011;7162;52.422;13.754;2023-02-15T09:04:26;28.50;;;10.10;;
14165;SDS011;7162;52.422;13.754;2023-02-15T09:06:53;22.27;;;10.30;;
14165;SDS011;7162;52.422;13.754;2023-02-15T09:09:20;31.40;;;11.37;;
14165;SDS011;7162;52.422;13.754;2023-02-15T09:11:48;25.90;;;9.37;;
14165;SDS011;7162;52.422;13.754;2023-02-15T09:14:17;32.43;;;10.57;;
14165;SDS011;7162;52.422;13.754;2023-02-15T09:16:46;25.37;;;9.70;;
14165;SDS011;7162;52.422;13.754;2023-02-15T09:19:16;34.60;;;10.43;;
14165;SDS011;7162;52.422;13.754;2023-02-15T09:21:44;29.83;;;11.30;;
14165;SDS011;7162;52.422;13.754;2023-02-15T09:24:11;25.87;;;9.47;;
14165;SDS011;7162;52.422;13.754;2023-02-15T09:26:39;25.93;;;10.17;;
14165;SDS011;7162;52.422;13.754;2023-02-15T09:29:06;29.67;;;10.07;;
14165;SDS011;7162;52.422;13.754;2023-02-15T09:31:37;25.23;;;9.03;;
14165;SDS011;7162;52.422;13.754;2023-02-15T09:34:04;25.50;;;9.60;;
14165;SDS011;7162;52.422;13.754;2023-02-15T09:36:32;33.70;;;11.30;;
14165;SDS011;7162;52.422;13.754;2023-02-15T09:39:04;31.87;;;10.53;;
14165;SDS011;7162;52.422;13.754;2023-02-15T09:41:47;25.97;;;10.47;;
14165;SDS011;7162;52.422;13.754;2023-02-15T09:44:20;31.33;;;11.27;;
14165;SDS011;7162;52.422;13.754;2023-02-15T09:46:55;27.20;;;9.33;;
14165;SDS011;7162;52.422;13.754;2023-02-15T09:49:26;29.57;;;10.40;;
14165;SDS011;7162;52.422;13.754;2023-02-15T09:52:05;30.60;;;9.90;;
14165;SDS011;7162;52.422;13.754;2023-02-15T09:54:39;27.00;;;9.77;;
14165;SDS011;7162;52.422;13.754;2023-02-15T09:57:10;22.13;;;9.97;;
14165;SDS011;7162;52.422;13.754;2023-02-15T09:59:42;24.70;;;9.13;;
14165;SDS011;7162;52.422;13.754;2023-02-15T10:02:15;25.73;;;9.93;;
14165;SDS011;7162;52.422;13.754;2023-02-15T10:04:52;24.23;;;10.23;;
14165;SDS011;7162;52.422;13.754;2023-02-15T10:07:25;29.07;;;11.20;;
14165;SDS011;7162;52.422;13.754;2023-02-15T10:10:02;35.90;;;10.10;;
14165;SDS011;7162;52.422;13.754;2023-02-15T10:15:31;29.70;;;8.90;;
14165;SDS011;7162;52.422;13.754;2023-02-15T10:18:10;21.53;;;8.63;;
14165;SDS011;7162;52.422;13.754;2023-02-15T10:20:41;30.20;;;9.80;;
14165;SDS011;7162;52.422;13.754;2023-02-15T10:23:17;24.30;;;10.10;;
14165;SDS011;7162;52.422;13.754;2023-02-15T10:25:49;23.93;;;9.63;;
14165;SDS011;7162;52.422;13.754;2023-02-15T10:28:19;20.23;;;10.17;;
14165;SDS011;7162;52.422;13.754;2023-02-15T10:30:47;27.20;;;10.93;;
14165;SDS011;7162;52.422;13.754;2023-02-15T10:36:03;26.50;;;9.87;;
14165;SDS011;7162;52.422;13.754;2023-02-15T10:38:33;22.63;;;8.83;;
14165;SDS011;7162;52.422;13.754;2023-02-15T10:41:04;23.53;;;9.70;;
14165;SDS011;7162;52.422;13.754;2023-02-15T10:43:44;37.87;;;12.17;;
14165;SDS011;7162;52.422;13.754;2023-02-15T10:46:17;23.30;;;8.97;;
14165;SDS011;7162;52.422;13.754;2023-02-15T10:51:40;28.30;;;10.60;;
14165;SDS011;7162;52.422;13.754;2023-02-15T10:54:14;23.53;;;9.93;;
14165;SDS011;7162;52.422;13.754;2023-02-15T10:56:43;21.67;;;8.80;;
14165;SDS011;7162;52.422;13.754;2023-02-15T10:59:23;28.70;;;9.63;;
14165;SDS011;7162;52.422;13.754;2023-02-15T11:01:53;23.73;;;8.70;;
14165;SDS011;7162;52.422;13.754;2023-02-15T11:04:38;24.63;;;10.00;;
14165;SDS011;7162;52.422;13.754;2023-02-15T11:07:14;26.93;;;9.83;;
14165;SDS011;7162;52.422;13.754;2023-02-15T11:09:57;22.67;;;9.40;;
14165;SDS011;7162;52.422;13.754;2023-02-15T11:12:38;21.67;;;8.87;;
14165;SDS011;7162;52.422;13.754;2023-02-15T11:17:41;27.73;;;10.10;;
14165;SDS011;7162;52.422;13.754;2023-02-15T11:20:15;26.00;;;10.13;;
14165;SDS011;7162;52.422;13.754;2023-02-15T11:22:45;25.73;;;9.37;;
14165;SDS011;7162;52.422;13.754;2023-02-15T11:25:14;28.13;;;10.40;;
14165;SDS011;7162;52.422;13.754;2023-02-15T11:27:43;22.70;;;9.23;;
14165;SDS011;7162;52.422;13.754;2023-02-15T11:30:12;25.67;;;8.30;;
14165;SDS011;7162;52.422;13.754;2023-02-15T11:32:41;20.00;;;8.13;;
14165;SDS011;7162;52.422;13.754;2023-02-15T11:35:18;23.60;;;8.33;;
14165;SDS011;7162;52.422;13.754;2023-02-15T11:37:48;21.87;;;8.93;;
14165;SDS011;7162;52.422;13.754;2023-02-15T11:40:19;22.70;;;9.30;;
14165;SDS011;7162;52.422;13.754;2023-02-15T11:42:49;25.63;;;9.47;;
14165;SDS011;7162;52.422;13.754;2023-02-15T11:45:19;22.67;;;9.10;;
14165;SDS011;7162;52.422;13.754;2023-02-15T11:47:48;26.73;;;9.13;;
14165;SDS011;7162;52.422;13.754;2023-02-15T11:50:16;23.30;;;8.70;;
14165;SDS011;7162;52.422;13.754;2023-02-15T11:52:48;21.03;;;9.47;;
14165;SDS011;7162;52.422;13.754;2023-02-15T11:55:18;20.13;;;8.50;;
14165;SDS011;7162;52.422;13.754;2023-02-15T11:57:46;20.47;;;8.17;;
14165;SDS011;7162;52.422;13.754;2023-02-15T12:00:16;21.10;;;8.53;;
14165;SDS011;7162;52.422;13.754;2023-02-15T12:02:48;20.53;;;9.63;;
14165;SDS011;7162;52.422;13.754;2023-02-15T12:05:18;24.83;;;8.63;;
14165;SDS011;7162;52.422;13.754;2023-02-15T12:07:49;21.57;;;8.80;;
14165;SDS011;7162;52.422;13.754;2023-02-15T12:10:19;21.27;;;8.70;;
14165;SDS011;7162;52.422;13.754;2023-02-15T12:12:49;18.80;;;8.57;;
14165;SDS011;7162;52.422;13.754;2023-02-15T12:15:34;18.93;;;7.97;;
14165;SDS011;7162;52.422;13.754;2023-02-15T12:18:02;23.40;;;8.93;;
14165;SDS011;7162;52.422;13.754;2023-02-15T12:20:31;23.90;;;9.07;;
14165;SDS011;7162;52.422;13.754;2023-02-15T12:23:00;17.13;;;8.13;;
14165;SDS011;7162;52.422;13.754;2023-02-15T12:25:29;20.60;;;9.07;;
14165;SDS011;7162;52.422;13.754;2023-02-15T12:27:57;19.07;;;7.47;;
14165;SDS011;7162;52.422;13.754;2023-02-15T12:30:28;21.30;;;8.93;;
14165;SDS011;7162;52.422;13.754;2023-02-15T12:32:57;24.57;;;8.00;;
14165;SDS011;7162;52.422;13.754;2023-02-15T12:35:27;19.67;;;8.70;;
14165;SDS011;7162;52.422;13.754;2023-02-15T12:37:55;23.30;;;8.10;;
14165;SDS011;7162;52.422;13.754;2023-02-15T12:40:24;21.43;;;8.40;;
14165;SDS011;7162;52.422;13.754;2023-02-15T12:42:52;21.23;;;7.80;;
14165;SDS011;7162;52.422;13.754;2023-02-15T12:45:21;24.63;;;8.37;;
14165;SDS011;7162;52.422;13.754;2023-02-15T12:48:07;21.13;;;9.07;;
14165;SDS011;7162;52.422;13.754;2023-02-15T12:50:35;16.57;;;7.93;;
14165;SDS011;7162;52.422;13.754;2023-02-15T12:53:06;19.73;;;8.73;;
14165;SDS011;7162;52.422;13.754;2023-02-15T12:55:35;21.97;;;7.90;;
14165;SDS011;7162;52.422;13.754;2023-02-15T12:58:06;15.40;;;7.97;;
14165;SDS011;7162;52.422;13.754;2023-02-15T13:00:33;18.20;;;7.70;;
14165;SDS011;7162;52.422;13.754;2023-02-15T13:03:00;17.33;;;8.33;;
14165;SDS011;7162;52.422;13.754;2023-02-15T13:05:29;13.40;;;6.73;;
14165;SDS011;7162;52.422;13.754;2023-02-15T13:07:58;18.80;;;7.10;;
14165;SDS011;7162;52.422;13.754;2023-02-15T13:10:29;13.70;;;6.87;;
14165;SDS011;7162;52.422;13.754;2023-02-15T13:12:58;17.97;;;7.97;;
14165;SDS011;7162;52.422;13.754;2023-02-15T13:15:32;26.67;;;7.97;;
14165;SDS011;7162;52.422;13.754;2023-02-15T13:18:01;15.13;;;7.37;;
14165;SDS011;7162;52.422;13.754;2023-02-15T13:20:29;15.30;;;7.10;;
14165;SDS011;7162;52.422;13.754;2023-02-15T13:22:58;14.37;;;6.80;;
14165;SDS011;7162;52.422;13.754;2023-02-15T13:25:25;16.67;;;7.87;;
14165;SDS011;7162;52.422;13.754;2023-02-15T13:27:54;17.80;;;6.90;;
14165;SDS011;7162;52.422;13.754;2023-02-15T13:30:24;12.77;;;6.93;;
14165;SDS011;7162;52.422;13.754;2023-02-15T13:32:52;22.60;;;7.23;;
14165;SDS011;7162;52.422;13.754;2023-02-15T13:35:21;15.70;;;5.93;;
14165;SDS011;7162;52.422;13.754;2023-02-15T13:40:33;17.90;;;6.20;;
14165;SDS011;7162;52.422;13.754;2023-02-15T13:43:03;13.43;;;6.63;;
14165;SDS011;7162;52.422;13.754;2023-02-15T13:45:38;13.23;;;5.97;;
14165;SDS011;7162;52.422;13.754;2023-02-15T13:48:11;13.57;;;6.43;;
14165;SDS011;7162;52.422;13.754;2023-02-15T13:50:49;14.20;;;6.90;;
14165;SDS011;7162;52.422;13.754;2023-02-15T13:53:23;14.27;;;6.03;;
14165;SDS011;7162;52.422;13.754;2023-02-15T13:55:54;15.27;;;6.07;;
14165;SDS011;7162;52.422;13.754;2023-02-15T14:01:26;12.77;;;5.93;;
14165;SDS011;7162;52.422;13.754;2023-02-15T14:04:01;19.77;;;6.90;;
14165;SDS011;7162;52.422;13.754;2023-02-15T14:06:37;16.63;;;6.37;;
14165;SDS011;7162;52.422;13.754;2023-02-15T14:09:13;12.33;;;5.70;;
14165;SDS011;7162;52.422;13.754;2023-02-15T14:11:44;12.17;;;5.87;;
14165;SDS011;7162;52.422;13.754;2023-02-15T14:14:33;11.40;;;5.93;;
14165;SDS011;7162;52.422;13.754;2023-02-15T14:17:07;14.63;;;5.73;;
14165;SDS011;7162;52.422;13.754;2023-02-15T14:19:39;14.67;;;4.80;;
14165;SDS011;7162;52.422;13.754;2023-02-15T14:22:14;9.93;;;5.43;;
14165;SDS011;7162;52.422;13.754;2023-02-15T14:24:46;11.83;;;5.87;;
14165;SDS011;7162;52.422;13.754;2023-02-15T14:27:17;12.37;;;6.40;;
14165;SDS011;7162;52.422;13.754;2023-02-15T14:29:47;18.80;;;6.90;;
14165;SDS011;7162;52.422;13.754;2023-02-15T14:32:18;12.40;;;6.00;;
14165;SDS011;7162;52.422;13.754;2023-02-15T14:34:50;12.50;;;6.30;;
14165;SDS011;7162;52.422;13.754;2023-02-15T14:37:19;11.63;;;5.00;;
14165;SDS011;7162;52.422;13.754;2023-02-15T14:39:52;13.07;;;5.67;;
14165;SDS011;7162;52.422;13.754;2023-02-15T14:42:41;14.60;;;5.60;;
14165;SDS011;7162;52.422;13.754;2023-02-15T14:45:15;11.73;;;5.40;;
14165;SDS011;7162;52.422;13.754;2023-02-15T14:47:46;15.57;;;5.77;;
14165;SDS011;7162;52.422;13.754;2023-02-15T14:53:15;12.70;;;6.20;;
14165;SDS011;7162;52.422;13.754;2023-02-15T14:55:42;15.90;;;5.50;;
14165;SDS011;7162;52.422;13.754;2023-02-15T14:58:10;10.57;;;4.80;;
14165;SDS011;7162;52.422;13.754;2023-02-15T15:00:38;11.70;;;4.70;;
14165;SDS011;7162;52.422;13.754;2023-02-15T15:03:18;9.53;;;5.00;;
14165;SDS011;7162;52.422;13.754;2023-02-15T15:05:47;9.37;;;5.43;;
14165;SDS011;7162;52.422;13.754;2023-02-15T15:08:21;10.53;;;4.70;;